Terminal Aerodrome Forecast
Issued by NWS

Home | Current Version | Previous Version | Text Only | Print | Product List | Glossary On
Versions: 1 2 3 4 5 6 7 8 9 10 11 12 13 14 15
000
FTUS42 KTBW 171700
TAFPIE
TAF
KPIE 171740Z 1718/1818 08011KT P6SM BKN025 BKN050
     FM172000 08013KT P6SM VCTS BKN025CB BKN050
      TEMPO 1720/1724 VRB18G28KT 4SM SHRA BKN015
     FM180100 08015G23KT P6SM SCT025 BKN100
     FM180800 09013KT P6SM BKN025
     FM181400 12013KT P6SM VCSH SCT015 BKN025
     FM181700 16014G22KT P6SM VCSH SCT015 BKN030=

USA.gov is the U.S. government's official web portal to all federal, state and local government web resources and services.